Time;durP1;ratioP1;P1;durP2;ratioP2;P2;SDS_P1;SDS_P2;PMS_P1;PMS_P2;Temp;Humidity;BMP_temperature;BMP_pressure;BME280_temperature;BME280_humidity;BME280_pressure;Samples;Min_cycle;Max_cycle;Signal;HPM_P1;HPM_P2
2022/10/04 00:08:54;;;;;;;1.65;0.30;;;7.40;99.90;;;;;;21071229;28;20036;-51
2022/10/04 00:19:36;;;;;;;1.05;0.30;;;7.30;99.90;;;;;;21053975;28;20040;-50
2022/10/04 00:29:41;;;;;;;0.40;0.30;;;7.50;99.90;;;;;;21071302;28;20198;-51
2022/10/04 00:39:56;;;;;;;1.00;0.32;;;7.30;99.90;;;;;;21036925;28;20097;-52
2022/10/04 00:50:09;;;;;;;1.42;0.43;;;7.20;99.90;;;;;;21052962;28;20040;-54
2022/10/04 01:00:18;;;;;;;1.88;0.50;;;7.20;99.90;;;;;;21053378;28;20037;-51
2022/10/04 01:10:29;;;;;;;0.95;0.50;;;7.20;99.90;;;;;;21052353;28;20029;-52
2022/10/04 01:21:02;;;;;;;1.27;0.60;;;7.10;99.90;;;;;;21052100;28;20032;-55
2022/10/04 01:31:05;;;;;;;2.95;0.65;;;6.80;99.90;;;;;;21051735;28;20040;-54
2022/10/04 01:41:10;;;;;;;1.20;0.68;;;6.80;99.90;;;;;;21114687;28;20089;-52
2022/10/04 01:51:18;;;;;;;5.07;1.08;;;6.80;99.90;;;;;;21122149;28;20093;-54
2022/10/04 02:01:30;;;;;;;1.60;1.00;;;6.90;99.90;;;;;;21133120;28;20036;-50
2022/10/04 02:11:36;;;;;;;1.65;0.73;;;6.80;99.90;;;;;;21081366;28;20054;-53
2022/10/04 02:21:40;;;;;;;2.30;1.30;;;6.90;99.90;;;;;;21123704;28;20040;-49
2022/10/04 02:42:15;;;;;;;2.83;1.35;;;6.80;99.90;;;;;;21130217;28;20044;-54
2022/10/04 02:52:36;;;;;;;2.88;1.55;;;6.70;99.90;;;;;;21129272;28;20040;-52
2022/10/04 03:02:39;;;;;;;5.45;3.53;;;6.90;99.90;;;;;;21132124;28;20035;-54
2022/10/04 03:12:42;;;;;;;7.57;4.10;;;6.90;99.90;;;;;;21136884;28;20028;-52
2022/10/04 03:22:47;;;;;;;10.32;7.18;;;7.30;99.90;;;;;;21143187;28;20032;-52
2022/10/04 03:32:50;;;;;;;21.05;13.20;;;7.30;99.90;;;;;;21142412;28;20660;-54
2022/10/04 03:42:54;;;;;;;25.70;16.55;;;7.40;99.90;;;;;;21141699;28;20047;-53
2022/10/04 03:53:04;;;;;;;30.63;18.77;;;7.30;99.90;;;;;;21123816;28;20547;-50
2022/10/04 04:03:14;;;;;;;24.20;14.83;;;7.20;99.90;;;;;;21140996;28;20027;-54
2022/10/04 04:13:20;;;;;;;31.23;19.97;;;7.10;99.90;;;;;;21122221;28;20442;-51
2022/10/04 04:23:27;;;;;;;28.27;16.15;;;7.10;99.90;;;;;;21138561;28;20031;-51
2022/10/04 04:33:59;;;;;;;29.25;18.23;;;6.90;99.90;;;;;;21139083;28;20031;-53
2022/10/04 04:44:13;;;;;;;34.10;20.65;;;6.80;99.90;;;;;;21132352;28;20464;-53
2022/10/04 04:54:21;;;;;;;34.72;21.10;;;6.90;99.90;;;;;;21136727;28;20493;-50
2022/10/04 05:04:25;;;;;;;34.38;20.05;;;7.20;99.90;;;;;;21137058;28;20031;-53
2022/10/04 05:14:30;;;;;;;32.63;21.42;;;7.60;99.90;;;;;;21136797;28;20061;-51
2022/10/04 05:24:40;;;;;;;46.42;25.35;;;7.70;99.90;;;;;;21139299;28;20529;-52
2022/10/04 05:34:48;;;;;;;36.03;21.70;;;7.50;99.90;;;;;;21151913;28;20596;-52
2022/10/04 05:44:57;;;;;;;36.97;21.50;;;7.40;99.90;;;;;;21151398;28;20028;-55
2022/10/04 05:55:15;;;;;;;42.97;25.85;;;7.50;99.90;;;;;;21150311;28;20577;-55
2022/10/04 06:05:35;;;;;;;50.42;29.48;;;7.60;99.90;;;;;;21132964;28;20036;-54
2022/10/04 06:15:49;;;;;;;52.83;30.47;;;8.10;99.90;;;;;;21148949;28;20453;-53
2022/10/04 06:26:11;;;;;;;53.00;32.95;;;8.30;99.90;;;;;;21130778;28;20040;-54
2022/10/04 06:36:14;;;;;;;56.67;34.30;;;8.40;99.90;;;;;;21146043;28;20039;-50
2022/10/04 06:46:41;;;;;;;52.33;33.20;;;8.60;99.90;;;;;;21146392;28;20606;-53
2022/10/04 06:57:07;;;;;;;49.92;32.13;;;9.10;99.90;;;;;;21145083;28;20070;-53
2022/10/04 07:07:23;;;;;;;43.58;28.88;;;9.30;99.90;;;;;;21144588;28;20031;-54
2022/10/04 07:17:31;;;;;;;39.22;27.83;;;9.50;99.90;;;;;;21143885;28;20035;-52
2022/10/04 07:29:19;;;;;;;39.35;27.23;;;9.70;99.90;;;;;;21143126;28;20484;-51
2022/10/04 07:38:17;;;;;;;39.10;29.27;;;10.20;99.90;;;;;;21086427;28;20413;-55
2022/10/04 07:48:23;;;;;;;29.85;24.17;;;11.00;99.90;;;;;;21055756;28;20424;-47
2022/10/04 07:58:36;;;;;;;21.55;18.58;;;12.00;99.90;;;;;;21040146;28;20553;-47
2022/10/04 08:08:46;;;;;;;23.23;19.65;;;12.90;99.90;;;;;;21039034;28;20109;-48
2022/10/04 08:19:15;;;;;;;26.02;20.08;;;13.50;99.90;;;;;;21054674;28;20077;-48
2022/10/04 08:29:41;;;;;;;;;;;14.00;99.90;;;;;;21038588;28;20081;-52
2022/10/04 08:40:27;;;;;;;19.35;16.63;;;14.10;99.90;;;;;;21095216;28;19912;-58
2022/10/04 08:50:40;;;;;;;21.02;17.35;;;15.20;99.90;;;;;;21154325;28;20380;-52
2022/10/04 09:01:03;;;;;;;22.13;18.20;;;15.40;99.90;;;;;;21161469;28;20032;-51
2022/10/04 09:11:09;;;;;;;23.42;19.20;;;15.20;99.90;;;;;;21156930;28;20708;-50
2022/10/04 09:21:48;;;;;;;21.77;17.52;;;14.90;99.90;;;;;;21170114;28;20454;-52
2022/10/04 09:32:12;;;;;;;20.20;17.50;;;14.90;99.90;;;;;;20872455;28;20045;-50
2022/10/04 09:43:09;;;;;;;23.42;17.83;;;15.20;99.90;;;;;;20891632;28;20485;-51
2022/10/04 09:53:45;;;;;;;22.35;18.55;;;15.30;99.90;;;;;;20886299;28;20231;-58
2022/10/04 10:03:57;;;;;;;21.58;18.88;;;15.20;99.90;;;;;;20966255;28;20043;-49
2022/10/04 10:14:15;;;;;;;20.52;16.38;;;15.00;99.90;;;;;;21080077;28;20076;-58
2022/10/04 10:24:59;;;;;;;17.90;15.68;;;15.00;99.90;;;;;;21062073;28;20029;-52
2022/10/04 10:35:27;;;;;;;22.60;19.23;;;15.30;99.90;;;;;;21046256;28;20101;-58
2022/10/04 10:45:29;;;;;;;23.92;19.55;;;15.30;99.90;;;;;;21044991;28;20089;-58
2022/10/04 10:56:09;;;;;;;22.02;18.88;;;15.40;99.90;;;;;;21044769;28;20059;-50
2022/10/04 11:06:37;;;;;;;18.50;15.75;;;15.40;99.90;;;;;;21060326;28;20040;-58
2022/10/04 11:17:02;;;;;;;25.75;19.80;;;15.20;99.90;;;;;;21059980;28;20466;-58
2022/10/04 11:27:12;;;;;;;23.13;18.92;;;15.10;99.90;;;;;;21059981;28;20086;-52
2022/10/04 11:37:33;;;;;;;;;;;14.80;99.90;;;;;;21089412;28;20108;-51
2022/10/04 11:47:54;;;;;;;19.38;15.95;;;15.00;99.90;;;;;;21157172;28;20017;-52
2022/10/04 11:58:27;;;;;;;18.10;15.88;;;15.30;99.90;;;;;;21141240;28;20054;-58
2022/10/04 12:09:03;;;;;;;22.45;17.17;;;15.30;99.90;;;;;;21139791;28;20484;-58
2022/10/04 12:19:28;;;;;;;22.55;18.52;;;15.10;99.90;;;;;;21139008;28;20035;-58
2022/10/04 12:30:01;;;;;;;21.27;17.23;;;14.60;99.90;;;;;;21139171;28;20326;-50
2022/10/04 12:40:36;;;;;;;25.63;20.05;;;14.30;99.90;;;;;;21137059;28;20100;-57
2022/10/04 12:50:44;;;;;;;24.02;20.55;;;14.10;99.90;;;;;;21137231;28;20442;-58
2022/10/04 13:00:50;;;;;;;24.65;19.42;;;14.30;99.90;;;;;;21137003;28;20480;-51
2022/10/04 13:11:14;;;;;;;27.95;23.80;;;14.40;99.90;;;;;;21136798;28;20065;-50
2022/10/04 13:21:35;;;;;;;26.15;22.80;;;14.60;99.90;;;;;;21136302;28;20084;-49
2022/10/04 13:32:04;;;;;;;27.27;23.33;;;14.90;99.90;;;;;;21136485;28;20105;-49
2022/10/04 13:42:30;;;;;;;30.73;25.52;;;15.20;99.90;;;;;;21060801;28;20074;-55
2022/10/04 14:03:52;;;;;;;31.42;25.05;;;14.50;99.90;;;;;;21060783;28;20040;-48
2022/10/04 14:14:38;;;;;;;26.38;21.85;;;14.40;99.90;;;;;;20645154;28;20069;-48
2022/10/04 14:25:04;;;;;;;24.40;21.33;;;14.30;99.90;;;;;;20702876;28;20045;-58
2022/10/04 14:35:22;;;;;;;24.02;20.27;;;14.30;99.90;;;;;;20724219;28;20033;-50
2022/10/04 14:45:50;;;;;;;25.85;21.70;;;14.30;99.90;;;;;;20809019;28;20478;-49
2022/10/04 14:56:19;;;;;;;25.63;21.65;;;14.00;99.90;;;;;;21062166;28;20039;-48
2022/10/04 15:06:34;;;;;;;;;;;14.10;99.90;;;;;;21090999;28;20040;-50
2022/10/04 15:16:45;;;;;;;25.67;20.10;;;14.10;99.90;;;;;;20976825;28;19935;-50
2022/10/04 15:26:50;;;;;;;27.10;21.52;;;14.00;99.90;;;;;;21053851;28;20036;-51
2022/10/04 15:37:47;;;;;;;24.88;20.95;;;13.90;99.90;;;;;;21086270;28;20492;-58
2022/10/04 15:48:01;;;;;;;27.83;21.48;;;13.50;99.90;;;;;;20831281;28;20080;-48
2022/10/04 15:58:21;;;;;;;24.20;19.98;;;13.20;99.90;;;;;;20898882;28;20044;-48
2022/10/04 16:08:46;;;;;;;26.73;21.65;;;12.70;99.90;;;;;;20896762;28;20041;-48
2022/10/04 16:19:16;;;;;;;35.22;24.35;;;11.80;99.90;;;;;;21126368;28;20043;-57
2022/10/04 16:29:31;;;;;;;34.23;24.70;;;11.00;99.90;;;;;;21122282;28;20454;-57
2022/10/04 16:40:06;;;;;;;34.78;22.67;;;10.30;99.90;;;;;;21137987;28;20493;-60
2022/10/04 16:50:11;;;;;;;39.55;25.70;;;9.60;99.90;;;;;;21137763;28;20441;-60
2022/10/04 17:00:37;;;;;;;40.65;25.67;;;9.30;99.90;;;;;;21137277;28;20061;-59
2022/10/04 17:10:49;;;;;;;42.15;24.80;;;9.10;99.90;;;;;;21137690;28;20032;-52
2022/10/04 17:20:59;;;;;;;44.40;25.95;;;8.90;99.90;;;;;;21141917;28;20488;-51
2022/10/04 17:31:05;;;;;;;47.70;29.13;;;8.70;99.90;;;;;;21152985;28;20035;-52
2022/10/04 17:41:38;;;;;;;46.17;27.00;;;8.50;99.90;;;;;;21152331;28;20093;-54
2022/10/04 18:02:16;;;;;;;52.10;31.90;;;8.40;99.90;;;;;;21150712;28;20191;-52
2022/10/04 18:12:22;;;;;;;;;;;8.30;99.90;;;;;;21149903;28;20031;-54
2022/10/04 18:22:27;;;;;;;42.13;26.15;;;8.30;99.90;;;;;;21148561;28;20436;-53
2022/10/04 18:32:31;;;;;;;41.42;25.85;;;8.20;99.90;;;;;;21147295;28;20077;-54
2022/10/04 18:42:40;;;;;;;46.53;28.25;;;8.20;99.90;;;;;;21147135;28;20101;-53
2022/10/04 18:53:14;;;;;;;53.10;29.83;;;8.10;99.90;;;;;;21129563;28;20447;-50
2022/10/04 19:03:32;;;;;;;53.53;31.92;;;8.00;99.90;;;;;;21144755;28;20036;-53
2022/10/04 19:14:08;;;;;;;81.18;41.50;;;7.80;99.90;;;;;;21060682;28;20443;-52
2022/10/04 19:25:00;;;;;;;45.63;27.83;;;7.90;99.90;;;;;;21030442;28;20032;-51
2022/10/04 19:35:27;;;;;;;40.53;25.30;;;8.40;99.90;;;;;;21032761;28;20451;-51
2022/10/04 19:45:46;;;;;;;33.42;22.05;;;8.90;99.90;;;;;;21013468;28;20048;-59
2022/10/04 19:55:54;;;;;;;52.92;30.35;;;9.10;99.90;;;;;;21023426;28;20043;-52
2022/10/04 20:05:58;;;;;;;36.13;24.10;;;9.20;99.90;;;;;;21123995;28;20088;-54
2022/10/04 20:16:01;;;;;;;46.28;29.35;;;9.10;99.90;;;;;;21141044;28;20117;-55
2022/10/04 20:26:07;;;;;;;43.65;26.70;;;8.70;99.90;;;;;;21122157;28;20106;-52
2022/10/04 20:36:31;;;;;;;38.88;26.15;;;8.90;99.90;;;;;;21160354;27;20088;-51
2022/10/04 20:46:37;;;;;;;40.30;26.20;;;9.10;99.90;;;;;;21223003;27;20053;-54
2022/10/04 20:56:47;;;;;;;44.55;28.92;;;9.30;99.90;;;;;;21185434;27;20089;-53
2022/10/04 21:06:55;;;;;;;48.33;29.60;;;9.30;99.90;;;;;;21121025;28;20093;-49
2022/10/04 21:17:21;;;;;;;48.85;29.85;;;9.40;99.90;;;;;;21137173;28;20031;-52
2022/10/04 21:27:42;;;;;;;46.92;29.13;;;9.00;99.90;;;;;;21119233;28;20044;-53
2022/10/04 21:37:44;;;;;;;50.60;29.38;;;8.70;99.90;;;;;;21101276;28;20040;-50
2022/10/04 21:47:47;;;;;;;53.47;30.70;;;8.50;99.90;;;;;;21051298;28;20062;-52
2022/10/04 21:57:49;;;;;;;51.55;30.52;;;8.60;99.90;;;;;;21051370;28;20089;-54
2022/10/04 22:07:53;;;;;;;35.67;23.30;;;8.90;99.90;;;;;;21055401;28;20097;-53
2022/10/04 22:17:56;;;;;;;27.67;19.73;;;9.40;99.90;;;;;;21064994;28;20485;-60
2022/10/04 22:28:00;;;;;;;27.33;19.10;;;9.90;99.90;;;;;;21064616;28;20028;-54
2022/10/04 22:38:08;;;;;;;32.75;22.13;;;10.10;99.90;;;;;;21080046;28;20097;-51
2022/10/04 22:48:14;;;;;;;24.23;17.38;;;10.10;99.90;;;;;;21062613;28;20093;-50
2022/10/04 22:58:17;;;;;;;24.80;17.33;;;10.20;99.90;;;;;;21061894;28;20032;-51
2022/10/04 23:08:19;;;;;;;26.85;18.83;;;10.20;99.90;;;;;;21000379;28;20090;-60
2022/10/04 23:18:22;;;;;;;28.75;20.30;;;10.10;99.90;;;;;;21000589;28;20036;-51
2022/10/04 23:28:25;;;;;;;24.83;17.92;;;10.00;99.90;;;;;;21059564;28;20105;-52
2022/10/04 23:38:29;;;;;;;27.35;18.08;;;10.00;99.90;;;;;;21025706;28;20036;-55
2022/10/04 23:48:32;;;;;;;25.85;17.63;;;10.00;99.90;;;;;;21057602;28;20089;-52
2022/10/04 23:58:38;;;;;;;24.75;17.92;;;10.00;99.90;;;;;;21057248;28;20447;-50
